sensor_id;sensor_type;location;lat;lon;timestamp;P1;durP1;ratioP1;P2;durP2;ratioP2
77876;SDS011;67251;50.844;7.978;2023-04-15T00:00:02;10.52;;;3.90;;
77876;SDS011;67251;50.844;7.978;2023-04-15T00:02:28;7.45;;;3.15;;
77876;SDS011;67251;50.844;7.978;2023-04-15T00:04:54;8.15;;;3.30;;
77876;SDS011;67251;50.844;7.978;2023-04-15T00:07:19;9.10;;;3.20;;
77876;SDS011;67251;50.844;7.978;2023-04-15T00:09:46;6.43;;;2.75;;
77876;SDS011;67251;50.844;7.978;2023-04-15T00:12:11;8.63;;;3.08;;
77876;SDS011;67251;50.844;7.978;2023-04-15T00:14:37;8.48;;;3.22;;
77876;SDS011;67251;50.844;7.978;2023-04-15T00:17:03;7.07;;;3.08;;
77876;SDS011;67251;50.844;7.978;2023-04-15T00:19:29;10.52;;;3.78;;
77876;SDS011;67251;50.844;7.978;2023-04-15T00:21:55;7.68;;;2.85;;
77876;SDS011;67251;50.844;7.978;2023-04-15T00:24:21;9.13;;;3.20;;
77876;SDS011;67251;50.844;7.978;2023-04-15T00:26:47;8.60;;;2.80;;
77876;SDS011;67251;50.844;7.978;2023-04-15T00:29:13;9.68;;;3.00;;
77876;SDS011;67251;50.844;7.978;2023-04-15T00:31:39;6.90;;;2.90;;
77876;SDS011;67251;50.844;7.978;2023-04-15T00:34:04;9.45;;;3.15;;
77876;SDS011;67251;50.844;7.978;2023-04-15T00:36:30;8.48;;;2.95;;
77876;SDS011;67251;50.844;7.978;2023-04-15T00:38:56;8.05;;;3.30;;
77876;SDS011;67251;50.844;7.978;2023-04-15T00:41:22;6.85;;;2.97;;
77876;SDS011;67251;50.844;7.978;2023-04-15T00:43:48;8.20;;;3.75;;
77876;SDS011;67251;50.844;7.978;2023-04-15T00:46:13;8.57;;;3.10;;
77876;SDS011;67251;50.844;7.978;2023-04-15T00:48:40;6.32;;;2.83;;
77876;SDS011;67251;50.844;7.978;2023-04-15T00:51:06;6.10;;;3.20;;
77876;SDS011;67251;50.844;7.978;2023-04-15T00:53:32;11.63;;;2.85;;
77876;SDS011;67251;50.844;7.978;2023-04-15T00:55:57;7.57;;;3.20;;
77876;SDS011;67251;50.844;7.978;2023-04-15T00:58:23;7.97;;;2.60;;
77876;SDS011;67251;50.844;7.978;2023-04-15T01:00:49;8.90;;;3.28;;
77876;SDS011;67251;50.844;7.978;2023-04-15T01:03:18;6.35;;;2.72;;
77876;SDS011;67251;50.844;7.978;2023-04-15T01:05:44;7.53;;;2.72;;
77876;SDS011;67251;50.844;7.978;2023-04-15T01:08:11;8.60;;;3.03;;
77876;SDS011;67251;50.844;7.978;2023-04-15T01:10:37;6.35;;;2.70;;
77876;SDS011;67251;50.844;7.978;2023-04-15T01:13:03;6.93;;;3.05;;
77876;SDS011;67251;50.844;7.978;2023-04-15T01:15:29;6.68;;;2.67;;
77876;SDS011;67251;50.844;7.978;2023-04-15T01:17:56;7.22;;;2.50;;
77876;SDS011;67251;50.844;7.978;2023-04-15T01:20:23;8.00;;;3.13;;
77876;SDS011;67251;50.844;7.978;2023-04-15T01:22:48;7.78;;;2.58;;
77876;SDS011;67251;50.844;7.978;2023-04-15T01:25:18;6.82;;;3.03;;
77876;SDS011;67251;50.844;7.978;2023-04-15T01:27:46;7.95;;;2.88;;
77876;SDS011;67251;50.844;7.978;2023-04-15T01:30:12;5.60;;;2.38;;
77876;SDS011;67251;50.844;7.978;2023-04-15T01:32:37;6.50;;;2.95;;
77876;SDS011;67251;50.844;7.978;2023-04-15T01:35:03;7.40;;;3.15;;
77876;SDS011;67251;50.844;7.978;2023-04-15T01:37:29;6.57;;;2.60;;
77876;SDS011;67251;50.844;7.978;2023-04-15T01:39:55;10.60;;;3.53;;
77876;SDS011;67251;50.844;7.978;2023-04-15T01:42:21;7.95;;;3.40;;
77876;SDS011;67251;50.844;7.978;2023-04-15T01:44:46;6.45;;;2.83;;
77876;SDS011;67251;50.844;7.978;2023-04-15T01:47:12;12.65;;;3.30;;
77876;SDS011;67251;50.844;7.978;2023-04-15T01:54:57;9.98;;;3.58;;
77876;SDS011;67251;50.844;7.978;2023-04-15T01:57:23;9.90;;;4.00;;
77876;SDS011;67251;50.844;7.978;2023-04-15T01:59:49;8.38;;;3.75;;
77876;SDS011;67251;50.844;7.978;2023-04-15T02:02:14;10.18;;;4.03;;
77876;SDS011;67251;50.844;7.978;2023-04-15T02:04:40;8.27;;;3.38;;
77876;SDS011;67251;50.844;7.978;2023-04-15T02:07:05;7.88;;;2.55;;
77876;SDS011;67251;50.844;7.978;2023-04-15T02:09:31;8.68;;;3.08;;
77876;SDS011;67251;50.844;7.978;2023-04-15T02:11:57;5.75;;;2.75;;
77876;SDS011;67251;50.844;7.978;2023-04-15T02:14:22;5.18;;;2.40;;
77876;SDS011;67251;50.844;7.978;2023-04-15T02:16:47;7.35;;;3.05;;
77876;SDS011;67251;50.844;7.978;2023-04-15T02:19:13;6.63;;;3.03;;
77876;SDS011;67251;50.844;7.978;2023-04-15T02:21:39;11.07;;;3.65;;
77876;SDS011;67251;50.844;7.978;2023-04-15T02:24:04;8.10;;;3.33;;
77876;SDS011;67251;50.844;7.978;2023-04-15T02:26:30;5.80;;;2.92;;
77876;SDS011;67251;50.844;7.978;2023-04-15T02:28:58;9.30;;;3.30;;
77876;SDS011;67251;50.844;7.978;2023-04-15T02:31:24;6.50;;;2.75;;
77876;SDS011;67251;50.844;7.978;2023-04-15T02:33:50;6.68;;;3.00;;
77876;SDS011;67251;50.844;7.978;2023-04-15T02:36:16;8.73;;;2.90;;
77876;SDS011;67251;50.844;7.978;2023-04-15T02:38:41;8.93;;;2.42;;
77876;SDS011;67251;50.844;7.978;2023-04-15T02:41:10;7.00;;;2.42;;
77876;SDS011;67251;50.844;7.978;2023-04-15T02:43:35;6.82;;;2.83;;
77876;SDS011;67251;50.844;7.978;2023-04-15T02:46:02;5.65;;;2.55;;
77876;SDS011;67251;50.844;7.978;2023-04-15T02:48:27;7.28;;;3.22;;
77876;SDS011;67251;50.844;7.978;2023-04-15T02:50:53;5.82;;;2.75;;
77876;SDS011;67251;50.844;7.978;2023-04-15T02:53:18;8.30;;;2.90;;
77876;SDS011;67251;50.844;7.978;2023-04-15T02:55:44;6.00;;;2.45;;
77876;SDS011;67251;50.844;7.978;2023-04-15T02:58:10;6.63;;;2.47;;
77876;SDS011;67251;50.844;7.978;2023-04-15T03:00:35;7.22;;;2.70;;
77876;SDS011;67251;50.844;7.978;2023-04-15T03:03:01;7.78;;;3.10;;
77876;SDS011;67251;50.844;7.978;2023-04-15T03:05:29;9.00;;;2.95;;
77876;SDS011;67251;50.844;7.978;2023-04-15T03:07:54;9.77;;;3.03;;
77876;SDS011;67251;50.844;7.978;2023-04-15T03:10:20;8.52;;;3.03;;
77876;SDS011;67251;50.844;7.978;2023-04-15T03:12:46;7.18;;;2.95;;
77876;SDS011;67251;50.844;7.978;2023-04-15T03:15:12;8.32;;;2.80;;
77876;SDS011;67251;50.844;7.978;2023-04-15T03:17:38;8.77;;;3.40;;
77876;SDS011;67251;50.844;7.978;2023-04-15T03:20:05;8.50;;;3.10;;
77876;SDS011;67251;50.844;7.978;2023-04-15T03:22:32;6.50;;;3.15;;
77876;SDS011;67251;50.844;7.978;2023-04-15T03:24:57;6.47;;;2.72;;
77876;SDS011;67251;50.844;7.978;2023-04-15T03:27:23;5.78;;;2.38;;
77876;SDS011;67251;50.844;7.978;2023-04-15T03:29:49;7.72;;;2.70;;
77876;SDS011;67251;50.844;7.978;2023-04-15T03:32:14;5.88;;;2.95;;
77876;SDS011;67251;50.844;7.978;2023-04-15T03:34:40;7.05;;;2.40;;
77876;SDS011;67251;50.844;7.978;2023-04-15T03:37:06;10.20;;;2.85;;
77876;SDS011;67251;50.844;7.978;2023-04-15T03:39:32;6.18;;;2.47;;
77876;SDS011;67251;50.844;7.978;2023-04-15T03:41:58;7.13;;;3.35;;
77876;SDS011;67251;50.844;7.978;2023-04-15T03:44:24;8.25;;;3.50;;
77876;SDS011;67251;50.844;7.978;2023-04-15T03:46:51;6.03;;;2.80;;
77876;SDS011;67251;50.844;7.978;2023-04-15T03:49:17;5.90;;;2.33;;
77876;SDS011;67251;50.844;7.978;2023-04-15T03:51:44;6.70;;;2.83;;
77876;SDS011;67251;50.844;7.978;2023-04-15T03:54:10;7.60;;;3.03;;
77876;SDS011;67251;50.844;7.978;2023-04-15T03:56:36;7.03;;;2.70;;
77876;SDS011;67251;50.844;7.978;2023-04-15T03:59:02;7.75;;;3.50;;
77876;SDS011;67251;50.844;7.978;2023-04-15T04:01:27;7.85;;;2.72;;
77876;SDS011;67251;50.844;7.978;2023-04-15T04:03:53;5.63;;;2.72;;
77876;SDS011;67251;50.844;7.978;2023-04-15T04:06:18;8.13;;;3.10;;
77876;SDS011;67251;50.844;7.978;2023-04-15T04:08:44;7.18;;;2.65;;
77876;SDS011;67251;50.844;7.978;2023-04-15T04:11:13;9.30;;;3.35;;
77876;SDS011;67251;50.844;7.978;2023-04-15T04:13:38;8.07;;;3.10;;
77876;SDS011;67251;50.844;7.978;2023-04-15T04:16:04;6.97;;;2.92;;
77876;SDS011;67251;50.844;7.978;2023-04-15T04:18:33;8.00;;;2.92;;
77876;SDS011;67251;50.844;7.978;2023-04-15T04:20:58;8.30;;;3.38;;
77876;SDS011;67251;50.844;7.978;2023-04-15T04:23:24;7.88;;;2.70;;
77876;SDS011;67251;50.844;7.978;2023-04-15T04:25:51;8.82;;;3.20;;
77876;SDS011;67251;50.844;7.978;2023-04-15T04:28:17;8.65;;;3.17;;
77876;SDS011;67251;50.844;7.978;2023-04-15T04:30:42;7.47;;;2.97;;
77876;SDS011;67251;50.844;7.978;2023-04-15T04:33:08;5.90;;;2.95;;
77876;SDS011;67251;50.844;7.978;2023-04-15T04:35:33;8.32;;;3.22;;
77876;SDS011;67251;50.844;7.978;2023-04-15T04:38:01;7.38;;;3.10;;
77876;SDS011;67251;50.844;7.978;2023-04-15T04:40:27;7.15;;;3.08;;
77876;SDS011;67251;50.844;7.978;2023-04-15T04:42:53;6.97;;;3.00;;
77876;SDS011;67251;50.844;7.978;2023-04-15T04:45:18;9.07;;;3.35;;
77876;SDS011;67251;50.844;7.978;2023-04-15T04:47:44;6.65;;;3.95;;
77876;SDS011;67251;50.844;7.978;2023-04-15T04:50:10;7.57;;;4.00;;
77876;SDS011;67251;50.844;7.978;2023-04-15T04:52:36;9.35;;;4.20;;
77876;SDS011;67251;50.844;7.978;2023-04-15T04:55:02;13.18;;;3.30;;
77876;SDS011;67251;50.844;7.978;2023-04-15T04:57:27;9.73;;;2.92;;
77876;SDS011;67251;50.844;7.978;2023-04-15T04:59:52;8.35;;;3.22;;
77876;SDS011;67251;50.844;7.978;2023-04-15T05:02:18;6.18;;;3.03;;
77876;SDS011;67251;50.844;7.978;2023-04-15T05:04:43;6.47;;;2.78;;
77876;SDS011;67251;50.844;7.978;2023-04-15T05:07:09;5.85;;;2.88;;
77876;SDS011;67251;50.844;7.978;2023-04-15T05:09:36;5.57;;;2.75;;
77876;SDS011;67251;50.844;7.978;2023-04-15T05:12:05;6.13;;;2.80;;
77876;SDS011;67251;50.844;7.978;2023-04-15T05:14:32;8.48;;;2.85;;
77876;SDS011;67251;50.844;7.978;2023-04-15T05:16:58;6.57;;;2.92;;
77876;SDS011;67251;50.844;7.978;2023-04-15T05:19:23;8.48;;;2.65;;
77876;SDS011;67251;50.844;7.978;2023-04-15T05:21:48;6.68;;;3.22;;
77876;SDS011;67251;50.844;7.978;2023-04-15T05:24:14;9.20;;;3.83;;
77876;SDS011;67251;50.844;7.978;2023-04-15T05:26:40;16.15;;;4.43;;
77876;SDS011;67251;50.844;7.978;2023-04-15T05:29:06;11.52;;;4.75;;
77876;SDS011;67251;50.844;7.978;2023-04-15T05:31:32;8.38;;;4.20;;
77876;SDS011;67251;50.844;7.978;2023-04-15T05:33:57;9.80;;;4.72;;
77876;SDS011;67251;50.844;7.978;2023-04-15T05:36:23;10.82;;;5.18;;
77876;SDS011;67251;50.844;7.978;2023-04-15T05:38:48;13.07;;;5.20;;
77876;SDS011;67251;50.844;7.978;2023-04-15T05:41:15;11.20;;;5.13;;
77876;SDS011;67251;50.844;7.978;2023-04-15T05:43:40;14.40;;;5.65;;
77876;SDS011;67251;50.844;7.978;2023-04-15T05:46:05;8.95;;;4.40;;
77876;SDS011;67251;50.844;7.978;2023-04-15T05:48:32;8.05;;;3.88;;
77876;SDS011;67251;50.844;7.978;2023-04-15T05:50:58;7.95;;;3.70;;
77876;SDS011;67251;50.844;7.978;2023-04-15T05:53:24;8.18;;;3.13;;
77876;SDS011;67251;50.844;7.978;2023-04-15T05:55:49;7.90;;;3.65;;
77876;SDS011;67251;50.844;7.978;2023-04-15T05:58:14;9.93;;;3.70;;
77876;SDS011;67251;50.844;7.978;2023-04-15T06:00:41;10.48;;;4.13;;
77876;SDS011;67251;50.844;7.978;2023-04-15T06:03:07;6.68;;;3.53;;
77876;SDS011;67251;50.844;7.978;2023-04-15T06:05:33;8.77;;;3.40;;
77876;SDS011;67251;50.844;7.978;2023-04-15T06:07:58;8.60;;;3.75;;
77876;SDS011;67251;50.844;7.978;2023-04-15T06:10:24;9.65;;;3.80;;
77876;SDS011;67251;50.844;7.978;2023-04-15T06:12:51;8.38;;;3.40;;
77876;SDS011;67251;50.844;7.978;2023-04-15T06:15:17;10.05;;;4.22;;
77876;SDS011;67251;50.844;7.978;2023-04-15T06:17:43;10.70;;;4.10;;
77876;SDS011;67251;50.844;7.978;2023-04-15T06:20:09;10.88;;;4.38;;
77876;SDS011;67251;50.844;7.978;2023-04-15T06:22:35;12.35;;;4.20;;
77876;SDS011;67251;50.844;7.978;2023-04-15T06:25:03;8.07;;;3.80;;
77876;SDS011;67251;50.844;7.978;2023-04-15T06:27:29;9.70;;;3.83;;
77876;SDS011;67251;50.844;7.978;2023-04-15T06:29:54;8.48;;;3.58;;
77876;SDS011;67251;50.844;7.978;2023-04-15T06:32:20;9.10;;;4.22;;
77876;SDS011;67251;50.844;7.978;2023-04-15T06:34:45;8.55;;;3.88;;
77876;SDS011;67251;50.844;7.978;2023-04-15T06:37:10;8.25;;;3.85;;
77876;SDS011;67251;50.844;7.978;2023-04-15T06:39:40;9.27;;;4.65;;
77876;SDS011;67251;50.844;7.978;2023-04-15T06:42:06;10.45;;;3.88;;
77876;SDS011;67251;50.844;7.978;2023-04-15T06:44:32;9.25;;;3.92;;
77876;SDS011;67251;50.844;7.978;2023-04-15T06:46:57;9.13;;;3.75;;
77876;SDS011;67251;50.844;7.978;2023-04-15T06:49:23;8.95;;;4.30;;
77876;SDS011;67251;50.844;7.978;2023-04-15T06:51:48;8.02;;;3.70;;
77876;SDS011;67251;50.844;7.978;2023-04-15T06:54:15;7.63;;;3.92;;
77876;SDS011;67251;50.844;7.978;2023-04-15T06:56:41;9.68;;;4.55;;
77876;SDS011;67251;50.844;7.978;2023-04-15T06:59:07;7.85;;;4.55;;
77876;SDS011;67251;50.844;7.978;2023-04-15T07:01:32;10.43;;;5.13;;
77876;SDS011;67251;50.844;7.978;2023-04-15T07:03:58;12.32;;;4.63;;
77876;SDS011;67251;50.844;7.978;2023-04-15T07:06:23;10.13;;;4.38;;
77876;SDS011;67251;50.844;7.978;2023-04-15T07:08:49;9.18;;;4.30;;
77876;SDS011;67251;50.844;7.978;2023-04-15T07:11:15;9.05;;;5.22;;
77876;SDS011;67251;50.844;7.978;2023-04-15T07:13:41;10.80;;;4.57;;
77876;SDS011;67251;50.844;7.978;2023-04-15T07:16:06;9.18;;;4.07;;
77876;SDS011;67251;50.844;7.978;2023-04-15T07:18:32;10.60;;;4.85;;
77876;SDS011;67251;50.844;7.978;2023-04-15T07:20:58;11.32;;;4.75;;
77876;SDS011;67251;50.844;7.978;2023-04-15T07:23:23;10.73;;;4.10;;
77876;SDS011;67251;50.844;7.978;2023-04-15T07:25:49;8.40;;;4.10;;
77876;SDS011;67251;50.844;7.978;2023-04-15T07:28:15;8.90;;;4.20;;
77876;SDS011;67251;50.844;7.978;2023-04-15T07:30:41;7.85;;;4.13;;
77876;SDS011;67251;50.844;7.978;2023-04-15T07:33:06;9.98;;;4.57;;
77876;SDS011;67251;50.844;7.978;2023-04-15T07:35:32;10.15;;;4.05;;
77876;SDS011;67251;50.844;7.978;2023-04-15T07:37:57;8.48;;;4.20;;
77876;SDS011;67251;50.844;7.978;2023-04-15T07:40:23;9.50;;;4.82;;
77876;SDS011;67251;50.844;7.978;2023-04-15T07:42:48;7.55;;;3.97;;
77876;SDS011;67251;50.844;7.978;2023-04-15T07:45:14;8.10;;;4.20;;
77876;SDS011;67251;50.844;7.978;2023-04-15T07:47:40;8.35;;;4.28;;
77876;SDS011;67251;50.844;7.978;2023-04-15T07:50:06;8.57;;;4.28;;
77876;SDS011;67251;50.844;7.978;2023-04-15T07:52:34;9.68;;;4.63;;
77876;SDS011;67251;50.844;7.978;2023-04-15T07:57:33;8.38;;;4.45;;
77876;SDS011;67251;50.844;7.978;2023-04-15T07:59:59;8.13;;;3.75;;
77876;SDS011;67251;50.844;7.978;2023-04-15T08:02:24;9.75;;;4.70;;
77876;SDS011;67251;50.844;7.978;2023-04-15T08:04:50;7.35;;;3.88;;
77876;SDS011;67251;50.844;7.978;2023-04-15T08:07:17;8.98;;;4.50;;
77876;SDS011;67251;50.844;7.978;2023-04-15T08:09:42;8.18;;;3.90;;
77876;SDS011;67251;50.844;7.978;2023-04-15T08:12:08;6.78;;;3.72;;
77876;SDS011;67251;50.844;7.978;2023-04-15T08:14:36;7.28;;;3.45;;
77876;SDS011;67251;50.844;7.978;2023-04-15T08:17:02;8.02;;;3.90;;
77876;SDS011;67251;50.844;7.978;2023-04-15T08:19:28;8.32;;;3.92;;
77876;SDS011;67251;50.844;7.978;2023-04-15T08:21:54;7.53;;;3.85;;
77876;SDS011;67251;50.844;7.978;2023-04-15T08:24:21;7.50;;;3.38;;
77876;SDS011;67251;50.844;7.978;2023-04-15T08:26:46;8.98;;;3.80;;
77876;SDS011;67251;50.844;7.978;2023-04-15T08:29:12;5.57;;;2.40;;
77876;SDS011;67251;50.844;7.978;2023-04-15T08:31:37;6.20;;;2.65;;
77876;SDS011;67251;50.844;7.978;2023-04-15T08:34:02;5.20;;;1.95;;
77876;SDS011;67251;50.844;7.978;2023-04-15T08:36:28;3.45;;;1.38;;
77876;SDS011;67251;50.844;7.978;2023-04-15T08:38:54;4.85;;;1.58;;
77876;SDS011;67251;50.844;7.978;2023-04-15T08:41:21;2.65;;;1.20;;
77876;SDS011;67251;50.844;7.978;2023-04-15T08:43:57;4.50;;;1.70;;
77876;SDS011;67251;50.844;7.978;2023-04-15T08:46:26;4.50;;;1.80;;
77876;SDS011;67251;50.844;7.978;2023-04-15T08:48:52;4.03;;;1.75;;
77876;SDS011;67251;50.844;7.978;2023-04-15T08:51:20;5.28;;;2.00;;
77876;SDS011;67251;50.844;7.978;2023-04-15T08:53:46;5.20;;;1.95;;
77876;SDS011;67251;50.844;7.978;2023-04-15T08:56:13;3.95;;;1.40;;
77876;SDS011;67251;50.844;7.978;2023-04-15T08:58:39;4.40;;;1.50;;
77876;SDS011;67251;50.844;7.978;2023-04-15T09:01:06;5.85;;;1.90;;
77876;SDS011;67251;50.844;7.978;2023-04-15T09:03:31;5.03;;;2.08;;
77876;SDS011;67251;50.844;7.978;2023-04-15T09:05:57;4.60;;;1.58;;
77876;SDS011;67251;50.844;7.978;2023-04-15T09:08:24;5.47;;;1.90;;
77876;SDS011;67251;50.844;7.978;2023-04-15T09:10:50;3.92;;;1.40;;
77876;SDS011;67251;50.844;7.978;2023-04-15T09:13:16;3.78;;;1.63;;
77876;SDS011;67251;50.844;7.978;2023-04-15T09:15:42;4.30;;;1.48;;
77876;SDS011;67251;50.844;7.978;2023-04-15T09:18:08;4.28;;;1.70;;
77876;SDS011;67251;50.844;7.978;2023-04-15T09:20:40;4.53;;;1.60;;
77876;SDS011;67251;50.844;7.978;2023-04-15T09:23:13;4.35;;;1.70;;
77876;SDS011;67251;50.844;7.978;2023-04-15T09:25:40;4.45;;;1.75;;
77876;SDS011;67251;50.844;7.978;2023-04-15T11:00:10;4.20;;;1.85;;
77876;SDS011;67251;50.844;7.978;2023-04-15T11:05:09;6.03;;;2.90;;
77876;SDS011;67251;50.844;7.978;2023-04-15T11:10:03;6.47;;;2.80;;
77876;SDS011;67251;50.844;7.978;2023-04-15T11:12:58;4.88;;;2.28;;
77876;SDS011;67251;50.844;7.978;2023-04-15T11:15:32;6.22;;;2.78;;
77876;SDS011;67251;50.844;7.978;2023-04-15T11:20:35;5.95;;;2.78;;
77876;SDS011;67251;50.844;7.978;2023-04-15T11:23:01;6.20;;;2.88;;
77876;SDS011;67251;50.844;7.978;2023-04-15T11:25:28;5.90;;;2.55;;
77876;SDS011;67251;50.844;7.978;2023-04-15T11:27:59;5.88;;;2.70;;
77876;SDS011;67251;50.844;7.978;2023-04-15T11:30:30;5.57;;;2.47;;
77876;SDS011;67251;50.844;7.978;2023-04-15T11:32:58;5.70;;;2.00;;
77876;SDS011;67251;50.844;7.978;2023-04-15T11:35:25;5.72;;;2.33;;
77876;SDS011;67251;50.844;7.978;2023-04-15T11:37:50;3.53;;;1.55;;
77876;SDS011;67251;50.844;7.978;2023-04-15T11:40:19;5.75;;;2.60;;
77876;SDS011;67251;50.844;7.978;2023-04-15T11:43:02;6.47;;;2.25;;
77876;SDS011;67251;50.844;7.978;2023-04-15T11:45:35;6.35;;;2.65;;
77876;SDS011;67251;50.844;7.978;2023-04-15T11:48:10;5.60;;;2.83;;
77876;SDS011;67251;50.844;7.978;2023-04-15T11:50:37;5.85;;;2.72;;
77876;SDS011;67251;50.844;7.978;2023-04-15T11:53:05;6.20;;;2.08;;
77876;SDS011;67251;50.844;7.978;2023-04-15T11:55:45;4.40;;;1.85;;
77876;SDS011;67251;50.844;7.978;2023-04-15T11:58:20;4.03;;;2.05;;
77876;SDS011;67251;50.844;7.978;2023-04-15T12:06:06;3.53;;;1.50;;
77876;SDS011;67251;50.844;7.978;2023-04-15T12:11:16;3.92;;;1.55;;
77876;SDS011;67251;50.844;7.978;2023-04-15T12:14:25;4.82;;;1.65;;
77876;SDS011;67251;50.844;7.978;2023-04-15T12:16:47;6.30;;;2.38;;
77876;SDS011;67251;50.844;7.978;2023-04-15T12:19:14;5.30;;;2.00;;
77876;SDS011;67251;50.844;7.978;2023-04-15T12:21:43;4.90;;;1.80;;
77876;SDS011;67251;50.844;7.978;2023-04-15T12:24:11;5.75;;;1.90;;
77876;SDS011;67251;50.844;7.978;2023-04-15T12:26:44;4.13;;;1.85;;
77876;SDS011;67251;50.844;7.978;2023-04-15T12:29:17;4.30;;;1.95;;
77876;SDS011;67251;50.844;7.978;2023-04-15T12:31:50;5.50;;;2.20;;
77876;SDS011;67251;50.844;7.978;2023-04-15T12:34:29;4.95;;;2.22;;
77876;SDS011;67251;50.844;7.978;2023-04-15T12:36:57;5.18;;;2.45;;
77876;SDS011;67251;50.844;7.978;2023-04-15T12:39:25;6.32;;;2.55;;
77876;SDS011;67251;50.844;7.978;2023-04-15T12:41:52;5.18;;;2.13;;
77876;SDS011;67251;50.844;7.978;2023-04-15T12:44:18;6.65;;;1.85;;
77876;SDS011;67251;50.844;7.978;2023-04-15T12:46:46;4.03;;;1.83;;
77876;SDS011;67251;50.844;7.978;2023-04-15T12:49:12;3.92;;;1.55;;
77876;SDS011;67251;50.844;7.978;2023-04-15T12:51:39;4.28;;;1.73;;
77876;SDS011;67251;50.844;7.978;2023-04-15T12:54:05;5.22;;;2.08;;
77876;SDS011;67251;50.844;7.978;2023-04-15T12:56:30;6.63;;;2.10;;
77876;SDS011;67251;50.844;7.978;2023-04-15T12:58:56;4.93;;;2.15;;
77876;SDS011;67251;50.844;7.978;2023-04-15T13:01:21;6.68;;;2.25;;
77876;SDS011;67251;50.844;7.978;2023-04-15T13:03:47;4.60;;;1.83;;
77876;SDS011;67251;50.844;7.978;2023-04-15T13:06:12;5.43;;;1.98;;
77876;SDS011;67251;50.844;7.978;2023-04-15T13:08:37;6.03;;;1.73;;
77876;SDS011;67251;50.844;7.978;2023-04-15T13:11:03;6.22;;;2.15;;
77876;SDS011;67251;50.844;7.978;2023-04-15T13:13:28;4.57;;;1.50;;
77876;SDS011;67251;50.844;7.978;2023-04-15T13:15:56;3.88;;;1.60;;
77876;SDS011;67251;50.844;7.978;2023-04-15T13:18:21;4.30;;;1.73;;
77876;SDS011;67251;50.844;7.978;2023-04-15T13:20:47;3.70;;;1.35;;
77876;SDS011;67251;50.844;7.978;2023-04-15T13:23:13;3.40;;;1.20;;
77876;SDS011;67251;50.844;7.978;2023-04-15T13:25:39;3.88;;;1.45;;
77876;SDS011;67251;50.844;7.978;2023-04-15T13:28:06;3.35;;;1.10;;
77876;SDS011;67251;50.844;7.978;2023-04-15T13:30:31;3.47;;;1.23;;
77876;SDS011;67251;50.844;7.978;2023-04-15T13:32:56;3.25;;;1.20;;
77876;SDS011;67251;50.844;7.978;2023-04-15T13:35:22;4.25;;;1.42;;
77876;SDS011;67251;50.844;7.978;2023-04-15T13:37:47;4.00;;;1.38;;
77876;SDS011;67251;50.844;7.978;2023-04-15T13:40:12;4.13;;;1.58;;
77876;SDS011;67251;50.844;7.978;2023-04-15T13:42:38;3.05;;;1.17;;
77876;SDS011;67251;50.844;7.978;2023-04-15T13:45:04;4.03;;;1.15;;
77876;SDS011;67251;50.844;7.978;2023-04-15T13:47:30;5.18;;;1.50;;
77876;SDS011;67251;50.844;7.978;2023-04-15T13:49:55;4.30;;;1.40;;
77876;SDS011;67251;50.844;7.978;2023-04-15T13:52:21;3.35;;;1.45;;
77876;SDS011;67251;50.844;7.978;2023-04-15T13:54:47;4.60;;;1.80;;
77876;SDS011;67251;50.844;7.978;2023-04-15T13:57:13;3.08;;;1.20;;
77876;SDS011;67251;50.844;7.978;2023-04-15T13:59:38;4.75;;;1.35;;
77876;SDS011;67251;50.844;7.978;2023-04-15T14:02:04;3.38;;;1.30;;
77876;SDS011;67251;50.844;7.978;2023-04-15T14:04:30;3.97;;;1.65;;
77876;SDS011;67251;50.844;7.978;2023-04-15T14:06:55;4.82;;;1.10;;
77876;SDS011;67251;50.844;7.978;2023-04-15T14:09:21;3.72;;;1.20;;
77876;SDS011;67251;50.844;7.978;2023-04-15T14:11:48;4.40;;;1.35;;
77876;SDS011;67251;50.844;7.978;2023-04-15T14:14:14;3.72;;;1.33;;
77876;SDS011;67251;50.844;7.978;2023-04-15T14:16:39;4.20;;;1.60;;
77876;SDS011;67251;50.844;7.978;2023-04-15T14:19:05;4.00;;;1.73;;
77876;SDS011;67251;50.844;7.978;2023-04-15T14:21:30;3.63;;;1.17;;
77876;SDS011;67251;50.844;7.978;2023-04-15T14:23:56;4.03;;;1.30;;
77876;SDS011;67251;50.844;7.978;2023-04-15T14:26:22;3.35;;;1.30;;
77876;SDS011;67251;50.844;7.978;2023-04-15T14:28:48;3.03;;;1.00;;
77876;SDS011;67251;50.844;7.978;2023-04-15T14:31:13;3.30;;;1.33;;
77876;SDS011;67251;50.844;7.978;2023-04-15T14:33:39;4.05;;;1.20;;
77876;SDS011;67251;50.844;7.978;2023-04-15T14:36:05;3.33;;;1.00;;
77876;SDS011;67251;50.844;7.978;2023-04-15T14:38:32;3.30;;;1.40;;
77876;SDS011;67251;50.844;7.978;2023-04-15T14:41:02;3.97;;;1.40;;
77876;SDS011;67251;50.844;7.978;2023-04-15T14:43:28;3.47;;;1.30;;
77876;SDS011;67251;50.844;7.978;2023-04-15T14:45:53;3.67;;;1.52;;
77876;SDS011;67251;50.844;7.978;2023-04-15T14:48:19;3.92;;;1.40;;
77876;SDS011;67251;50.844;7.978;2023-04-15T14:50:45;4.72;;;1.83;;
77876;SDS011;67251;50.844;7.978;2023-04-15T14:53:10;5.03;;;1.67;;
77876;SDS011;67251;50.844;7.978;2023-04-15T14:55:35;4.07;;;1.25;;
77876;SDS011;67251;50.844;7.978;2023-04-15T14:58:01;4.07;;;1.50;;
77876;SDS011;67251;50.844;7.978;2023-04-15T15:00:26;3.97;;;1.58;;
77876;SDS011;67251;50.844;7.978;2023-04-15T15:02:52;3.65;;;1.50;;
77876;SDS011;67251;50.844;7.978;2023-04-15T15:05:17;4.38;;;1.40;;
77876;SDS011;67251;50.844;7.978;2023-04-15T15:07:43;3.80;;;1.40;;
77876;SDS011;67251;50.844;7.978;2023-04-15T15:10:08;3.25;;;1.23;;
77876;SDS011;67251;50.844;7.978;2023-04-15T15:12:34;4.57;;;1.70;;
77876;SDS011;67251;50.844;7.978;2023-04-15T15:14:59;4.47;;;1.85;;
77876;SDS011;67251;50.844;7.978;2023-04-15T15:17:26;3.80;;;1.60;;
77876;SDS011;67251;50.844;7.978;2023-04-15T15:19:51;5.45;;;2.00;;
77876;SDS011;67251;50.844;7.978;2023-04-15T15:22:17;4.50;;;2.10;;
77876;SDS011;67251;50.844;7.978;2023-04-15T15:24:42;4.35;;;1.70;;
77876;SDS011;67251;50.844;7.978;2023-04-15T15:27:08;4.60;;;1.88;;
77876;SDS011;67251;50.844;7.978;2023-04-15T15:29:33;4.97;;;2.22;;
77876;SDS011;67251;50.844;7.978;2023-04-15T15:31:59;4.82;;;1.90;;
77876;SDS011;67251;50.844;7.978;2023-04-15T15:34:24;5.57;;;2.13;;
77876;SDS011;67251;50.844;7.978;2023-04-15T15:36:50;4.63;;;2.15;;
77876;SDS011;67251;50.844;7.978;2023-04-15T15:39:16;5.28;;;2.30;;
77876;SDS011;67251;50.844;7.978;2023-04-15T15:41:42;5.13;;;2.30;;
77876;SDS011;67251;50.844;7.978;2023-04-15T15:44:07;4.85;;;1.98;;
77876;SDS011;67251;50.844;7.978;2023-04-15T15:46:32;5.95;;;2.47;;
77876;SDS011;67251;50.844;7.978;2023-04-15T15:48:58;5.78;;;2.67;;
77876;SDS011;67251;50.844;7.978;2023-04-15T15:51:23;6.40;;;2.78;;
77876;SDS011;67251;50.844;7.978;2023-04-15T15:53:50;6.35;;;2.58;;
77876;SDS011;67251;50.844;7.978;2023-04-15T15:56:16;5.20;;;2.30;;
77876;SDS011;67251;50.844;7.978;2023-04-15T15:58:41;5.78;;;2.63;;
77876;SDS011;67251;50.844;7.978;2023-04-15T16:01:09;6.18;;;2.72;;
77876;SDS011;67251;50.844;7.978;2023-04-15T16:03:34;6.35;;;2.42;;
77876;SDS011;67251;50.844;7.978;2023-04-15T16:06:00;6.05;;;2.67;;
77876;SDS011;67251;50.844;7.978;2023-04-15T16:08:25;5.75;;;2.35;;
77876;SDS011;67251;50.844;7.978;2023-04-15T16:10:51;6.05;;;2.85;;
77876;SDS011;67251;50.844;7.978;2023-04-15T16:13:16;6.22;;;2.80;;
77876;SDS011;67251;50.844;7.978;2023-04-15T16:15:41;6.10;;;3.28;;
77876;SDS011;67251;50.844;7.978;2023-04-15T16:18:07;5.85;;;2.72;;
77876;SDS011;67251;50.844;7.978;2023-04-15T16:20:32;5.32;;;2.65;;
77876;SDS011;67251;50.844;7.978;2023-04-15T16:22:58;5.78;;;2.95;;
77876;SDS011;67251;50.844;7.978;2023-04-15T16:25:23;5.38;;;2.72;;
77876;SDS011;67251;50.844;7.978;2023-04-15T16:27:51;5.97;;;2.67;;
77876;SDS011;67251;50.844;7.978;2023-04-15T16:30:17;5.10;;;2.55;;
77876;SDS011;67251;50.844;7.978;2023-04-15T16:32:42;6.65;;;2.83;;
77876;SDS011;67251;50.844;7.978;2023-04-15T16:35:07;6.25;;;2.42;;